createdAt,value
2022-11-01T00:02:09.501Z,25.25
2022-11-01T00:04:37.077Z,22.75
2022-11-01T00:07:04.339Z,18.00
2022-11-01T00:09:31.236Z,18.00
2022-11-01T00:11:59.428Z,20.75
2022-11-01T00:14:26.410Z,27.50
2022-11-01T00:16:53.389Z,20.75
2022-11-01T00:19:20.364Z,22.50
2022-11-01T00:21:47.313Z,24.25
2022-11-01T00:24:14.309Z,22.00
2022-11-01T00:26:41.305Z,20.50
2022-11-01T00:29:08.469Z,20.00
2022-11-01T00:31:35.725Z,23.75
2022-11-01T00:34:05.797Z,20.50
2022-11-01T00:36:36.473Z,20.25
2022-11-01T00:39:04.771Z,24.25
2022-11-01T00:41:31.668Z,23.75
2022-11-01T00:43:58.571Z,23.00
2022-11-01T00:46:25.502Z,17.25
2022-11-01T00:48:52.404Z,21.75
2022-11-01T00:51:19.310Z,25.50
2022-11-01T00:53:46.185Z,18.25
2022-11-01T00:56:13.088Z,25.00
2022-11-01T00:58:39.955Z,21.75
2022-11-01T01:01:06.961Z,20.00
2022-11-01T01:03:33.870Z,19.75
2022-11-01T01:06:00.827Z,19.00
2022-11-01T01:08:28.420Z,22.25
2022-11-01T01:10:55.538Z,18.75
2022-11-01T01:13:22.636Z,21.25
2022-11-01T01:15:49.555Z,23.50
2022-11-01T01:18:16.815Z,25.75
2022-11-01T01:20:43.986Z,22.00
2022-11-01T01:23:10.991Z,20.00
2022-11-01T01:25:42.086Z,19.00
2022-11-01T01:28:09.490Z,22.75
2022-11-01T01:30:40.595Z,22.00
2022-11-01T01:33:07.533Z,20.75
2022-11-01T01:35:34.487Z,23.75
2022-11-01T01:38:01.664Z,21.50
2022-11-01T01:40:28.775Z,24.75
2022-11-01T01:42:55.688Z,20.00
2022-11-01T01:45:32.510Z,24.00
2022-11-01T01:48:23.051Z,21.00
2022-11-01T01:51:00.000Z,20.75
2022-11-01T01:53:43.357Z,27.75
2022-11-01T01:56:19.985Z,21.50
2022-11-01T01:58:55.370Z,18.75
2022-11-01T02:01:22.622Z,22.50
2022-11-01T02:03:50.202Z,22.25
2022-11-01T02:06:21.983Z,22.75
2022-11-01T02:09:18.005Z,23.25
2022-11-01T02:12:07.443Z,22.50
2022-11-01T02:14:54.288Z,20.00
2022-11-01T02:17:52.760Z,23.00
2022-11-01T02:21:09.794Z,23.50
2022-11-01T02:24:22.017Z,20.75
2022-11-01T02:27:14.898Z,22.50
2022-11-01T02:30:15.293Z,16.00
2022-11-01T02:32:58.628Z,17.00
2022-11-01T02:36:00.282Z,21.50
2022-11-01T02:38:36.159Z,16.25
2022-11-01T02:41:14.931Z,24.00
2022-11-01T02:44:02.700Z,17.50
2022-11-01T02:46:54.294Z,18.75
2022-11-01T02:49:24.225Z,23.50
2022-11-01T02:51:53.328Z,20.50
2022-11-01T02:54:32.972Z,22.50
2022-11-01T02:57:07.350Z,14.50
2022-11-01T02:59:44.757Z,22.00
2022-11-01T03:02:39.838Z,16.25
2022-11-01T03:05:22.919Z,18.25
2022-11-01T03:07:57.239Z,24.25
2022-11-01T03:10:36.303Z,17.00
2022-11-01T03:13:21.609Z,23.50
2022-11-01T03:16:00.486Z,18.75
2022-11-01T03:18:36.019Z,19.75
2022-11-01T03:21:18.566Z,21.00
2022-11-01T03:23:51.831Z,22.25
2022-11-01T03:26:26.195Z,21.25
2022-11-01T03:29:03.064Z,18.25
2022-11-01T03:31:33.214Z,16.75
2022-11-01T03:34:04.139Z,18.75
2022-11-01T03:36:39.243Z,17.50
2022-11-01T03:39:16.005Z,19.75
2022-11-01T03:41:48.388Z,16.75
2022-11-01T03:44:15.656Z,16.75
2022-11-01T03:46:43.408Z,17.50
2022-11-01T03:49:10.344Z,19.25
2022-11-01T03:51:37.262Z,21.25
2022-11-01T03:54:06.707Z,20.00
2022-11-01T03:56:33.581Z,15.25
2022-11-01T03:59:00.623Z,17.50
2022-11-01T04:01:27.567Z,13.00
2022-11-01T04:03:54.562Z,15.00
2022-11-01T04:06:21.571Z,16.00
2022-11-01T04:08:48.452Z,13.75
2022-11-01T04:11:15.320Z,16.00
2022-11-01T04:13:43.500Z,16.75
2022-11-01T04:16:32.465Z,14.25
2022-11-01T04:19:17.911Z,15.75
2022-11-01T04:21:45.145Z,16.50
2022-11-01T04:24:12.001Z,21.00
2022-11-01T04:26:38.923Z,15.00
2022-11-01T04:29:05.835Z,13.50
2022-11-01T04:31:37.216Z,14.75
2022-11-01T04:34:05.669Z,15.50
2022-11-01T04:36:32.614Z,15.75
2022-11-01T04:38:59.724Z,15.25
2022-11-01T04:41:28.573Z,14.50
2022-11-01T04:43:57.937Z,15.00
2022-11-01T04:46:25.426Z,14.50
2022-11-01T04:48:52.293Z,13.00
2022-11-01T04:51:19.142Z,13.75
2022-11-01T04:53:46.055Z,12.00
2022-11-01T04:56:14.148Z,12.50
2022-11-01T04:58:44.954Z,13.75
2022-11-01T05:01:15.039Z,10.25
2022-11-01T05:03:42.869Z,14.25
2022-11-01T05:06:09.997Z,14.00
2022-11-01T05:08:37.011Z,14.00
2022-11-01T05:11:04.186Z,13.00
2022-11-01T05:13:31.155Z,9.75
2022-11-01T05:18:45.113Z,16.50
2022-11-01T05:21:12.309Z,13.00
2022-11-01T05:23:39.175Z,14.00
2022-11-01T05:26:06.370Z,11.50
2022-11-01T05:28:33.617Z,12.00
2022-11-01T05:31:00.839Z,11.75
2022-11-01T05:33:27.728Z,12.00
2022-11-01T05:35:54.731Z,10.75
2022-11-01T05:38:21.682Z,10.00
2022-11-01T05:40:48.935Z,12.00
2022-11-01T05:43:15.848Z,10.00
2022-11-01T05:45:42.836Z,9.50
2022-11-01T05:48:09.731Z,12.50
2022-11-01T05:50:36.686Z,11.25
2022-11-01T05:53:07.588Z,13.00
2022-11-01T05:55:35.322Z,11.00
2022-11-01T05:58:02.287Z,9.33
2022-11-01T06:00:29.214Z,11.50
2022-11-01T06:02:58.585Z,12.25
2022-11-01T06:05:26.625Z,11.67
2022-11-01T06:07:53.824Z,13.25
2022-11-01T06:10:20.716Z,13.00
2022-11-01T06:12:47.640Z,8.67
2022-11-01T06:15:14.547Z,14.67
2022-11-01T06:17:41.438Z,9.00
2022-11-01T06:20:08.872Z,9.67
2022-11-01T06:22:39.122Z,8.33
2022-11-01T06:25:07.095Z,8.00
2022-11-01T06:27:34.040Z,12.00
2022-11-01T06:30:00.923Z,9.67
2022-11-01T06:32:27.837Z,10.00
2022-11-01T06:34:54.754Z,12.33
2022-11-01T06:37:21.600Z,7.67
2022-11-01T06:39:48.483Z,10.00
2022-11-01T06:42:15.382Z,10.00
2022-11-01T06:44:42.289Z,10.00
2022-11-01T06:47:09.319Z,8.00
2022-11-01T06:49:36.196Z,3.00
2022-11-01T06:52:03.595Z,6.67
2022-11-01T06:54:30.522Z,8.67
2022-11-01T06:56:57.613Z,6.67
2022-11-01T06:59:25.233Z,8.00
2022-11-01T07:01:55.427Z,9.33
2022-11-01T07:04:22.670Z,6.33
2022-11-01T07:06:49.823Z,8.00
2022-11-01T07:09:16.739Z,8.00
2022-11-01T07:11:43.629Z,9.00
2022-11-01T07:14:10.601Z,7.00
2022-11-01T07:16:39.149Z,7.33
2022-11-01T07:19:06.174Z,8.00
2022-11-01T07:21:33.068Z,7.33
2022-11-01T07:24:00.033Z,6.00
2022-11-01T07:26:26.928Z,7.00
2022-11-01T07:28:53.770Z,7.00
2022-11-01T07:31:20.790Z,6.33
2022-11-01T07:33:47.739Z,7.00
2022-11-01T07:36:14.771Z,7.67
2022-11-01T07:38:41.643Z,7.00
2022-11-01T07:41:08.523Z,7.33
2022-11-01T07:43:36.358Z,7.67
2022-11-01T07:46:07.542Z,4.67
2022-11-01T07:48:37.025Z,8.00
2022-11-01T07:51:06.322Z,7.25
2022-11-01T07:53:33.988Z,6.00
2022-11-01T07:56:02.164Z,5.67
2022-11-01T07:58:29.986Z,6.00
2022-11-01T08:00:57.064Z,7.00
2022-11-01T08:03:24.317Z,5.00
2022-11-01T08:05:51.272Z,7.00
2022-11-01T08:08:18.710Z,5.33
2022-11-01T08:10:46.630Z,8.67
2022-11-01T08:13:16.370Z,6.33
2022-11-01T08:15:43.569Z,8.00
2022-11-01T08:18:11.098Z,5.67
2022-11-01T08:20:38.248Z,7.00
2022-11-01T08:23:05.704Z,7.67
2022-11-01T08:25:35.246Z,6.67
2022-11-01T08:28:04.303Z,6.67
2022-11-01T08:30:31.625Z,5.00
2022-11-01T08:33:03.066Z,8.33
2022-11-01T08:35:31.281Z,5.00
2022-11-01T08:38:01.590Z,8.33
2022-11-01T08:40:28.740Z,6.00
2022-11-01T08:42:56.193Z,4.33
2022-11-01T08:45:23.830Z,5.67
2022-11-01T08:47:50.831Z,6.67
2022-11-01T08:50:18.472Z,6.00
2022-11-01T08:52:45.414Z,7.00
2022-11-01T08:55:12.451Z,6.00
2022-11-01T08:57:39.529Z,6.00
2022-11-01T09:00:07.565Z,6.00
2022-11-01T09:02:34.850Z,6.67
2022-11-01T09:05:06.867Z,5.00
2022-11-01T09:07:37.801Z,3.67
2022-11-01T09:10:05.509Z,4.67
2022-11-01T09:12:32.488Z,5.00
2022-11-01T09:14:59.345Z,6.00
2022-11-01T09:17:26.233Z,3.33
2022-11-01T09:19:53.081Z,4.00
2022-11-01T09:22:20.127Z,5.33
2022-11-01T09:24:47.054Z,5.33
2022-11-01T09:27:13.936Z,2.67
2022-11-01T09:29:40.802Z,3.00
2022-11-01T09:32:07.719Z,4.67
2022-11-01T10:08:06.496Z,15.00
2022-11-01T10:10:39.462Z,12.50
2022-11-01T10:13:35.514Z,14.00
2022-11-01T10:16:30.430Z,3.25
2022-11-01T10:19:19.333Z,1.00
2022-11-01T10:21:53.206Z,1.00
2022-11-01T10:24:36.129Z,0.67
2022-11-01T10:27:22.855Z,1.00
2022-11-01T10:30:22.118Z,0.00
2022-11-01T10:33:41.527Z,0.00
2022-11-01T10:36:14.924Z,0.00
2022-11-01T10:39:23.447Z,0.00
2022-11-01T10:41:45.701Z,0.00
2022-11-01T10:44:26.891Z,0.00
2022-11-01T10:46:55.513Z,0.00
2022-11-01T10:49:40.454Z,0.00
2022-11-01T10:52:20.187Z,0.00
2022-11-01T10:54:48.277Z,0.00
2022-11-01T10:57:30.011Z,0.00
2022-11-01T11:00:01.664Z,0.00
2022-11-01T11:02:35.077Z,0.00
2022-11-01T11:05:02.182Z,0.00
2022-11-01T11:07:32.918Z,0.00
2022-11-01T11:10:02.983Z,0.00
2022-11-01T11:12:31.546Z,0.00
2022-11-01T11:15:04.172Z,0.00
2022-11-01T11:17:31.059Z,0.00
2022-11-01T11:20:06.160Z,0.00
2022-11-01T11:22:40.075Z,0.00
2022-11-01T11:25:14.869Z,0.00
2022-11-01T11:27:48.962Z,0.00
2022-11-01T11:30:36.235Z,0.00
2022-11-01T11:33:03.689Z,0.00
2022-11-01T11:35:33.768Z,0.00
2022-11-01T11:38:06.879Z,0.00
2022-11-01T11:40:41.043Z,0.00
2022-11-01T11:43:30.632Z,0.00
2022-11-01T11:46:15.077Z,0.00
2022-11-01T11:48:52.823Z,0.00
2022-11-01T11:51:21.802Z,0.00
2022-11-01T11:54:29.430Z,0.00
2022-11-01T11:57:11.853Z,0.00
2022-11-01T11:59:41.542Z,0.00
2022-11-01T12:02:20.151Z,0.00
2022-11-01T12:04:58.417Z,0.00
2022-11-01T12:07:34.445Z,0.00
2022-11-01T12:10:07.237Z,15.50
2022-11-01T12:12:42.851Z,10.75
2022-11-01T12:15:41.411Z,12.75
2022-11-01T12:18:17.186Z,15.75
2022-11-01T12:20:50.317Z,15.50
2022-11-01T12:23:33.746Z,17.75
2022-11-01T12:26:05.559Z,17.75
2022-11-01T12:28:45.109Z,15.00
2022-11-01T12:31:18.094Z,15.75
2022-11-01T12:33:54.850Z,15.75
2022-11-01T12:36:29.476Z,18.25
2022-11-01T12:39:03.755Z,23.00
2022-11-01T12:41:53.150Z,21.00
2022-11-01T12:44:29.241Z,26.75
2022-11-01T12:47:04.639Z,15.00
2022-11-01T12:49:56.813Z,8.25
2022-11-01T12:52:30.277Z,22.50
2022-11-01T12:57:39.883Z,10.00
2022-11-01T13:00:07.947Z,4.25
2022-11-01T13:02:34.861Z,4.50
2022-11-01T13:05:11.972Z,3.00
2022-11-01T13:07:56.369Z,4.00
2022-11-01T13:10:30.620Z,5.00
2022-11-01T13:13:22.849Z,10.25
2022-11-01T13:15:58.454Z,4.75
2022-11-01T13:18:48.186Z,2.67
2022-11-01T13:21:38.795Z,3.25
2022-11-01T13:24:29.285Z,7.00
2022-11-01T13:27:05.450Z,5.00
2022-11-01T13:29:56.937Z,7.25
2022-11-01T13:33:11.731Z,7.25
2022-11-01T13:36:01.608Z,4.00
2022-11-01T13:39:00.814Z,8.25
2022-11-01T13:41:37.250Z,6.75
2022-11-01T13:44:17.106Z,11.25
2022-11-01T13:46:56.466Z,8.50
2022-11-01T13:49:51.513Z,9.00
2022-11-01T13:52:23.764Z,13.25
2022-11-01T13:55:15.352Z,10.75
2022-11-01T13:57:45.057Z,5.00
2022-11-01T14:00:40.472Z,10.00
2022-11-01T14:03:23.026Z,8.75
2022-11-01T14:06:11.636Z,8.75
2022-11-01T14:08:49.654Z,9.25
2022-11-01T14:11:41.563Z,6.25
2022-11-01T14:14:30.180Z,6.75
2022-11-01T14:17:19.029Z,6.00
2022-11-01T14:19:48.474Z,7.00
2022-11-01T14:22:24.635Z,3.00
2022-11-01T14:24:57.933Z,5.75
2022-11-01T14:27:35.715Z,7.50
2022-11-01T14:30:12.605Z,6.25
2022-11-01T14:32:39.714Z,5.00
2022-11-01T14:35:23.246Z,7.25
2022-11-01T14:37:54.969Z,6.75
2022-11-01T14:40:30.976Z,9.00
2022-11-01T14:43:10.498Z,13.50
2022-11-01T14:45:44.825Z,8.50
2022-11-01T14:48:25.413Z,9.75
2022-11-01T14:51:08.115Z,13.00
2022-11-01T14:53:37.686Z,5.50
2022-11-01T14:56:16.229Z,5.75
2022-11-01T14:58:44.122Z,8.50
2022-11-01T15:01:21.009Z,7.00
2022-11-01T15:04:22.263Z,10.00
2022-11-01T15:06:50.399Z,6.50
2022-11-01T15:09:28.107Z,5.75
2022-11-01T15:12:05.384Z,3.00
2022-11-01T15:14:40.735Z,4.00
2022-11-01T15:17:20.650Z,0.00
2022-11-01T15:19:48.693Z,1.75
2022-11-01T15:22:22.554Z,4.50
2022-11-01T15:24:56.875Z,4.25
2022-11-01T15:27:29.842Z,5.00
2022-11-01T15:29:57.022Z,4.75
2022-11-01T15:32:30.613Z,6.00
2022-11-01T15:35:00.631Z,4.50
2022-11-01T15:37:31.566Z,6.00
2022-11-01T15:40:00.846Z,5.00
2022-11-01T15:42:34.238Z,3.75
2022-11-01T15:45:26.948Z,4.25
2022-11-01T15:47:54.447Z,6.00
2022-11-01T15:50:21.668Z,5.00
2022-11-01T15:52:49.062Z,5.00
2022-11-01T15:55:34.629Z,3.75
2022-11-01T15:58:09.098Z,4.00
2022-11-01T16:00:46.598Z,5.00
2022-11-01T16:03:23.738Z,5.25
2022-11-01T16:05:59.715Z,3.25
2022-11-01T16:08:39.869Z,3.00
2022-11-01T16:11:07.508Z,3.00
2022-11-01T16:13:35.037Z,4.25
2022-11-01T16:16:08.078Z,4.50
2022-11-01T16:18:37.152Z,5.00
2022-11-01T16:21:19.353Z,7.50
2022-11-01T16:23:52.645Z,4.00
2022-11-01T16:26:19.694Z,6.75
2022-11-01T16:28:47.245Z,5.25
2022-11-01T16:31:33.555Z,6.75
2022-11-01T16:34:00.599Z,4.50
2022-11-01T16:36:44.167Z,5.00
2022-11-01T16:39:27.856Z,8.75
2022-11-01T16:41:54.984Z,5.75
2022-11-01T16:44:22.355Z,5.25
2022-11-01T16:46:50.019Z,5.25
2022-11-01T16:49:19.446Z,7.00
2022-11-01T16:51:46.698Z,5.00
2022-11-01T16:54:13.648Z,6.50
2022-11-01T16:56:50.041Z,5.75
2022-11-01T16:59:29.103Z,6.25
2022-11-01T17:01:58.757Z,9.75
2022-11-01T17:04:30.264Z,15.25
2022-11-01T17:06:58.855Z,9.00
2022-11-01T17:09:31.738Z,10.75
2022-11-01T17:11:59.530Z,16.25
2022-11-01T17:14:26.841Z,10.00
2022-11-01T17:16:56.526Z,11.75
2022-11-01T17:19:29.890Z,8.25
2022-11-01T17:21:59.299Z,8.00
2022-11-01T17:24:29.250Z,16.25
2022-11-01T17:27:00.334Z,14.00
2022-11-01T17:29:27.342Z,9.50
2022-11-01T17:31:54.388Z,8.75
2022-11-01T17:34:21.501Z,13.75
2022-11-01T17:36:50.130Z,12.00
2022-11-01T17:39:17.594Z,11.50
2022-11-01T17:41:44.645Z,9.75
2022-11-01T17:44:12.540Z,13.00
2022-11-01T17:46:40.823Z,11.75
2022-11-01T17:49:07.922Z,16.25
2022-11-01T17:51:36.430Z,12.25
2022-11-01T17:54:04.009Z,10.00
2022-11-01T17:56:31.492Z,9.50
2022-11-01T17:58:58.332Z,8.50
2022-11-01T18:01:25.511Z,9.00
2022-11-01T18:03:52.640Z,10.00
2022-11-01T18:06:19.597Z,15.25
2022-11-01T18:08:50.754Z,11.00
2022-11-01T18:12:05.827Z,18.50
2022-11-01T18:14:32.693Z,10.00
2022-11-01T18:17:29.141Z,7.00
2022-11-01T18:20:04.112Z,11.00
2022-11-01T18:22:36.524Z,8.00
2022-11-01T18:25:33.263Z,13.50
2022-11-01T18:28:02.969Z,14.50
2022-11-01T18:30:30.500Z,11.25
2022-11-01T18:35:54.182Z,4.00
2022-11-01T18:38:33.939Z,6.00
2022-11-01T18:41:02.451Z,8.00
2022-11-01T18:43:33.891Z,9.75
2022-11-01T18:46:29.116Z,8.50
2022-11-01T18:49:00.592Z,6.75
2022-11-01T18:51:34.036Z,14.00
2022-11-01T18:54:22.683Z,14.75
2022-11-01T18:57:16.364Z,14.25
2022-11-01T18:59:45.860Z,15.00
2022-11-01T19:02:16.040Z,10.25
2022-11-01T19:04:43.744Z,9.25
2022-11-01T19:07:14.782Z,12.00
2022-11-01T19:09:56.546Z,10.00
2022-11-01T19:12:31.663Z,13.00
2022-11-01T19:15:30.855Z,8.00
2022-11-01T19:18:03.905Z,12.00
2022-11-01T19:20:34.914Z,5.75
2022-11-01T19:23:03.956Z,4.00
2022-11-01T19:25:33.505Z,8.25
2022-11-01T19:28:11.581Z,4.00
2022-11-01T19:30:38.642Z,6.00
2022-11-01T19:33:33.266Z,6.50
2022-11-01T19:36:05.426Z,9.50
2022-11-01T19:38:32.323Z,4.00
2022-11-01T19:40:59.693Z,5.50
2022-11-01T19:43:28.316Z,7.00
2022-11-01T19:45:57.920Z,4.75
2022-11-01T19:48:30.267Z,7.00
2022-11-01T19:50:57.843Z,12.00
2022-11-01T19:53:27.946Z,6.00
2022-11-01T19:56:04.139Z,5.00
2022-11-01T19:58:46.680Z,8.50
2022-11-01T20:01:17.454Z,4.00
2022-11-01T20:03:48.079Z,3.50
2022-11-01T20:06:24.268Z,5.25
2022-11-01T20:08:55.905Z,8.75
2022-11-01T20:11:23.053Z,6.50
2022-11-01T20:13:50.185Z,5.00
2022-11-01T20:16:17.254Z,2.50
2022-11-01T20:18:45.021Z,4.00
2022-11-01T20:21:12.938Z,5.00
2022-11-01T20:23:40.235Z,4.75
2022-11-01T20:26:07.282Z,2.50
2022-11-01T20:28:34.220Z,4.50
2022-11-01T20:31:01.374Z,8.25
2022-11-01T20:33:28.301Z,5.75
2022-11-01T20:35:55.465Z,6.75
2022-11-01T20:38:24.362Z,8.00
2022-11-01T20:40:51.376Z,8.00
2022-11-01T20:43:18.750Z,4.75
2022-11-01T20:45:45.696Z,7.50
2022-11-01T20:48:12.559Z,7.50
2022-11-01T20:50:39.771Z,4.75
2022-11-01T20:53:07.306Z,6.25
2022-11-01T20:55:34.297Z,5.00
2022-11-01T20:58:02.139Z,5.50
2022-11-01T21:00:29.920Z,6.00
2022-11-01T21:02:58.088Z,12.50
2022-11-01T21:05:30.110Z,12.50
2022-11-01T21:08:22.722Z,7.50
2022-11-01T21:10:56.870Z,12.00
2022-11-01T21:13:42.528Z,8.25
2022-11-01T21:16:23.059Z,7.50
2022-11-01T21:18:59.722Z,6.00
2022-11-01T21:21:33.091Z,8.50
2022-11-01T21:24:02.489Z,3.75
2022-11-01T21:26:32.141Z,4.00
2022-11-01T21:29:05.795Z,5.00
2022-11-01T21:31:35.419Z,5.75
2022-11-01T21:34:12.181Z,7.00
2022-11-01T21:36:44.741Z,7.75
2022-11-01T21:39:22.925Z,6.75
2022-11-01T21:42:29.889Z,6.00
2022-11-01T21:44:57.552Z,8.50
2022-11-01T21:47:24.465Z,8.75
2022-11-01T21:49:56.267Z,4.50
2022-11-01T21:52:24.498Z,6.00
2022-11-01T21:54:52.980Z,6.00
2022-11-01T21:57:20.124Z,8.50
2022-11-01T21:59:47.503Z,5.50
2022-11-01T22:02:15.437Z,6.00
2022-11-01T22:04:42.774Z,8.25
2022-11-01T22:07:12.863Z,10.25
2022-11-01T22:09:40.183Z,5.50
2022-11-01T22:12:08.167Z,6.00
2022-11-01T22:14:35.518Z,20.00
2022-11-01T22:17:02.627Z,17.75
2022-11-01T22:19:29.626Z,11.50
2022-11-01T22:21:57.159Z,10.25
2022-11-01T22:24:24.161Z,8.75
2022-11-01T22:26:51.276Z,5.50
2022-11-01T22:29:18.305Z,4.00
2022-11-01T22:31:45.161Z,1.75
2022-11-01T22:34:12.139Z,5.75
2022-11-01T22:36:40.741Z,4.75
2022-11-01T22:39:21.294Z,9.00
2022-11-01T22:41:48.867Z,5.00
2022-11-01T22:44:44.445Z,10.25
2022-11-01T22:47:28.497Z,9.00
2022-11-01T22:50:02.238Z,8.50
2022-11-01T22:52:32.256Z,10.75
2022-11-01T22:55:11.344Z,11.50
2022-11-01T22:57:52.062Z,11.25
2022-11-01T23:00:36.489Z,11.75
2022-11-01T23:03:22.011Z,12.00
2022-11-01T23:05:54.778Z,12.25
2022-11-01T23:08:24.999Z,12.25
2022-11-01T23:10:52.749Z,9.75
2022-11-01T23:13:44.365Z,9.50
2022-11-01T23:16:35.151Z,7.00
2022-11-01T23:19:03.720Z,7.00
2022-11-01T23:21:30.735Z,6.50
2022-11-01T23:23:57.961Z,12.25
2022-11-01T23:26:25.214Z,6.00
2022-11-01T23:28:54.717Z,8.25
2022-11-01T23:31:23.826Z,6.50
2022-11-01T23:33:51.779Z,4.50
2022-11-01T23:36:26.284Z,4.75
2022-11-01T23:39:10.283Z,4.75
2022-11-01T23:41:39.012Z,6.00
2022-11-01T23:44:29.211Z,4.00
2022-11-01T23:47:22.869Z,4.00
2022-11-01T23:50:04.868Z,9.00
2022-11-01T23:52:47.278Z,6.25
2022-11-01T23:55:26.033Z,10.25
2022-11-01T23:57:59.499Z,9.00
